sensor_id;sensor_type;location;lat;lon;timestamp;P1;durP1;ratioP1;P2;durP2;ratioP2
8964;SDS011;4517;49.020;12.066;2024-03-02T00:01:14;119.17;;;65.77;;
8964;SDS011;4517;49.020;12.066;2024-03-02T00:03:40;130.70;;;65.00;;
8964;SDS011;4517;49.020;12.066;2024-03-02T00:06:08;127.43;;;68.20;;
8964;SDS011;4517;49.020;12.066;2024-03-02T00:08:35;118.33;;;67.60;;
8964;SDS011;4517;49.020;12.066;2024-03-02T00:11:01;118.57;;;69.80;;
8964;SDS011;4517;49.020;12.066;2024-03-02T00:13:30;112.17;;;66.20;;
8964;SDS011;4517;49.020;12.066;2024-03-02T00:15:58;124.20;;;67.10;;
8964;SDS011;4517;49.020;12.066;2024-03-02T00:18:25;121.87;;;66.37;;
8964;SDS011;4517;49.020;12.066;2024-03-02T00:20:53;116.50;;;65.70;;
8964;SDS011;4517;49.020;12.066;2024-03-02T00:23:20;118.17;;;70.30;;
8964;SDS011;4517;49.020;12.066;2024-03-02T00:25:47;127.00;;;66.33;;
8964;SDS011;4517;49.020;12.066;2024-03-02T00:33:42;121.10;;;67.33;;
8964;SDS011;4517;49.020;12.066;2024-03-02T00:36:08;132.67;;;68.77;;
8964;SDS011;4517;49.020;12.066;2024-03-02T00:38:34;135.57;;;69.93;;
8964;SDS011;4517;49.020;12.066;2024-03-02T00:41:05;128.20;;;73.00;;
8964;SDS011;4517;49.020;12.066;2024-03-02T00:46:03;128.00;;;70.37;;
8964;SDS011;4517;49.020;12.066;2024-03-02T00:48:29;136.30;;;71.60;;
8964;SDS011;4517;49.020;12.066;2024-03-02T00:50:56;124.63;;;71.77;;
8964;SDS011;4517;49.020;12.066;2024-03-02T00:53:23;125.73;;;69.87;;
8964;SDS011;4517;49.020;12.066;2024-03-02T00:55:49;134.97;;;72.60;;
8964;SDS011;4517;49.020;12.066;2024-03-02T00:58:15;141.93;;;72.37;;
8964;SDS011;4517;49.020;12.066;2024-03-02T01:00:41;144.73;;;78.43;;
8964;SDS011;4517;49.020;12.066;2024-03-02T01:03:07;148.70;;;74.10;;
8964;SDS011;4517;49.020;12.066;2024-03-02T01:05:33;138.17;;;70.97;;
8964;SDS011;4517;49.020;12.066;2024-03-02T01:08:00;127.70;;;75.27;;
8964;SDS011;4517;49.020;12.066;2024-03-02T01:10:26;128.97;;;76.47;;
8964;SDS011;4517;49.020;12.066;2024-03-02T01:12:52;148.77;;;80.30;;
8964;SDS011;4517;49.020;12.066;2024-03-02T01:15:18;141.23;;;75.93;;
8964;SDS011;4517;49.020;12.066;2024-03-02T01:17:44;138.50;;;74.07;;
8964;SDS011;4517;49.020;12.066;2024-03-02T01:20:10;130.47;;;78.20;;
8964;SDS011;4517;49.020;12.066;2024-03-02T01:22:36;141.67;;;74.20;;
8964;SDS011;4517;49.020;12.066;2024-03-02T01:25:03;131.17;;;75.67;;
8964;SDS011;4517;49.020;12.066;2024-03-02T01:27:29;126.87;;;73.27;;
8964;SDS011;4517;49.020;12.066;2024-03-02T01:29:55;131.53;;;71.20;;
8964;SDS011;4517;49.020;12.066;2024-03-02T01:32:21;130.83;;;73.50;;
8964;SDS011;4517;49.020;12.066;2024-03-02T01:34:47;123.63;;;75.60;;
8964;SDS011;4517;49.020;12.066;2024-03-02T01:37:13;110.03;;;68.40;;
8964;SDS011;4517;49.020;12.066;2024-03-02T01:39:39;125.97;;;72.00;;
8964;SDS011;4517;49.020;12.066;2024-03-02T01:42:05;134.43;;;75.83;;
8964;SDS011;4517;49.020;12.066;2024-03-02T01:44:30;118.67;;;74.97;;
8964;SDS011;4517;49.020;12.066;2024-03-02T01:46:57;119.87;;;70.80;;
8964;SDS011;4517;49.020;12.066;2024-03-02T01:49:22;113.57;;;72.20;;
8964;SDS011;4517;49.020;12.066;2024-03-02T01:51:48;124.47;;;71.30;;
8964;SDS011;4517;49.020;12.066;2024-03-02T01:54:14;116.33;;;71.43;;
8964;SDS011;4517;49.020;12.066;2024-03-02T01:56:40;113.67;;;68.50;;
8964;SDS011;4517;49.020;12.066;2024-03-02T01:59:06;122.47;;;70.37;;
8964;SDS011;4517;49.020;12.066;2024-03-02T02:01:32;128.37;;;73.53;;
8964;SDS011;4517;49.020;12.066;2024-03-02T02:03:58;115.97;;;68.37;;
8964;SDS011;4517;49.020;12.066;2024-03-02T02:06:24;116.03;;;70.40;;
8964;SDS011;4517;49.020;12.066;2024-03-02T02:08:51;107.20;;;67.50;;
8964;SDS011;4517;49.020;12.066;2024-03-02T02:11:17;113.87;;;69.40;;
8964;SDS011;4517;49.020;12.066;2024-03-02T02:13:43;119.30;;;65.87;;
8964;SDS011;4517;49.020;12.066;2024-03-02T02:16:09;112.53;;;67.30;;
8964;SDS011;4517;49.020;12.066;2024-03-02T02:18:35;111.70;;;67.17;;
8964;SDS011;4517;49.020;12.066;2024-03-02T02:21:02;125.97;;;68.80;;
8964;SDS011;4517;49.020;12.066;2024-03-02T02:23:28;115.90;;;67.73;;
8964;SDS011;4517;49.020;12.066;2024-03-02T02:25:54;119.97;;;72.10;;
8964;SDS011;4517;49.020;12.066;2024-03-02T02:28:20;127.07;;;65.73;;
8964;SDS011;4517;49.020;12.066;2024-03-02T02:30:46;108.30;;;66.90;;
8964;SDS011;4517;49.020;12.066;2024-03-02T02:33:12;121.43;;;70.40;;
8964;SDS011;4517;49.020;12.066;2024-03-02T02:35:38;116.47;;;68.10;;
8964;SDS011;4517;49.020;12.066;2024-03-02T02:38:04;125.97;;;72.33;;
8964;SDS011;4517;49.020;12.066;2024-03-02T02:40:31;127.30;;;70.97;;
8964;SDS011;4517;49.020;12.066;2024-03-02T02:42:58;114.93;;;72.53;;
8964;SDS011;4517;49.020;12.066;2024-03-02T02:45:24;117.80;;;69.67;;
8964;SDS011;4517;49.020;12.066;2024-03-02T02:47:50;105.43;;;67.50;;
8964;SDS011;4517;49.020;12.066;2024-03-02T02:50:16;108.10;;;70.97;;
8964;SDS011;4517;49.020;12.066;2024-03-02T02:52:42;115.97;;;70.00;;
8964;SDS011;4517;49.020;12.066;2024-03-02T02:55:09;107.50;;;68.30;;
8964;SDS011;4517;49.020;12.066;2024-03-02T02:57:36;134.17;;;76.83;;
8964;SDS011;4517;49.020;12.066;2024-03-02T03:00:06;129.10;;;66.33;;
8964;SDS011;4517;49.020;12.066;2024-03-02T03:02:35;113.70;;;69.40;;
8964;SDS011;4517;49.020;12.066;2024-03-02T03:05:01;115.97;;;69.47;;
8964;SDS011;4517;49.020;12.066;2024-03-02T03:07:27;113.80;;;68.97;;
8964;SDS011;4517;49.020;12.066;2024-03-02T03:09:53;107.73;;;67.50;;
8964;SDS011;4517;49.020;12.066;2024-03-02T03:12:19;109.70;;;70.70;;
8964;SDS011;4517;49.020;12.066;2024-03-02T03:14:45;109.70;;;67.03;;
8964;SDS011;4517;49.020;12.066;2024-03-02T03:17:11;122.77;;;72.50;;
8964;SDS011;4517;49.020;12.066;2024-03-02T03:19:38;136.67;;;73.67;;
8964;SDS011;4517;49.020;12.066;2024-03-02T03:22:04;132.10;;;70.93;;
8964;SDS011;4517;49.020;12.066;2024-03-02T03:24:30;125.50;;;69.57;;
8964;SDS011;4517;49.020;12.066;2024-03-02T03:26:57;146.13;;;74.97;;
8964;SDS011;4517;49.020;12.066;2024-03-02T03:29:23;133.83;;;76.47;;
8964;SDS011;4517;49.020;12.066;2024-03-02T03:31:49;131.70;;;72.07;;
8964;SDS011;4517;49.020;12.066;2024-03-02T03:34:15;130.97;;;73.57;;
8964;SDS011;4517;49.020;12.066;2024-03-02T03:36:42;143.23;;;74.30;;
8964;SDS011;4517;49.020;12.066;2024-03-02T03:39:08;132.37;;;74.00;;
8964;SDS011;4517;49.020;12.066;2024-03-02T03:41:34;158.20;;;78.23;;
8964;SDS011;4517;49.020;12.066;2024-03-02T03:44:00;143.10;;;77.20;;
8964;SDS011;4517;49.020;12.066;2024-03-02T03:46:26;160.73;;;77.40;;
8964;SDS011;4517;49.020;12.066;2024-03-02T03:48:52;136.67;;;75.37;;
8964;SDS011;4517;49.020;12.066;2024-03-02T03:51:18;142.30;;;75.57;;
8964;SDS011;4517;49.020;12.066;2024-03-02T03:53:44;144.67;;;77.30;;
8964;SDS011;4517;49.020;12.066;2024-03-02T03:56:10;138.50;;;78.93;;
8964;SDS011;4517;49.020;12.066;2024-03-02T03:58:36;153.83;;;74.60;;
8964;SDS011;4517;49.020;12.066;2024-03-02T04:01:02;140.10;;;78.17;;
8964;SDS011;4517;49.020;12.066;2024-03-02T04:03:28;165.27;;;78.33;;
8964;SDS011;4517;49.020;12.066;2024-03-02T04:05:54;166.77;;;80.63;;
8964;SDS011;4517;49.020;12.066;2024-03-02T04:08:20;147.63;;;74.90;;
8964;SDS011;4517;49.020;12.066;2024-03-02T04:10:46;140.53;;;76.03;;
8964;SDS011;4517;49.020;12.066;2024-03-02T04:13:12;148.63;;;76.53;;
8964;SDS011;4517;49.020;12.066;2024-03-02T04:15:38;154.90;;;81.60;;
8964;SDS011;4517;49.020;12.066;2024-03-02T04:18:05;161.67;;;78.83;;
8964;SDS011;4517;49.020;12.066;2024-03-02T04:20:31;157.40;;;82.27;;
8964;SDS011;4517;49.020;12.066;2024-03-02T04:22:57;150.27;;;75.53;;
8964;SDS011;4517;49.020;12.066;2024-03-02T04:25:23;142.10;;;75.43;;
8964;SDS011;4517;49.020;12.066;2024-03-02T04:27:49;135.67;;;76.00;;
8964;SDS011;4517;49.020;12.066;2024-03-02T04:30:15;146.10;;;77.80;;
8964;SDS011;4517;49.020;12.066;2024-03-02T04:32:41;141.40;;;72.67;;
8964;SDS011;4517;49.020;12.066;2024-03-02T04:35:11;145.40;;;73.80;;
8964;SDS011;4517;49.020;12.066;2024-03-02T04:37:37;140.67;;;77.23;;
8964;SDS011;4517;49.020;12.066;2024-03-02T04:40:03;149.47;;;73.53;;
8964;SDS011;4517;49.020;12.066;2024-03-02T04:42:33;165.20;;;74.60;;
8964;SDS011;4517;49.020;12.066;2024-03-02T04:44:59;158.10;;;80.07;;
8964;SDS011;4517;49.020;12.066;2024-03-02T04:47:25;143.40;;;75.20;;
8964;SDS011;4517;49.020;12.066;2024-03-02T04:49:51;132.50;;;74.47;;
8964;SDS011;4517;49.020;12.066;2024-03-02T04:52:17;146.07;;;78.83;;
8964;SDS011;4517;49.020;12.066;2024-03-02T04:54:43;152.77;;;75.97;;
8964;SDS011;4517;49.020;12.066;2024-03-02T04:57:27;132.17;;;71.73;;
8964;SDS011;4517;49.020;12.066;2024-03-02T04:59:53;140.53;;;78.27;;
8964;SDS011;4517;49.020;12.066;2024-03-02T05:02:19;158.40;;;76.20;;
8964;SDS011;4517;49.020;12.066;2024-03-02T05:04:45;143.33;;;80.40;;
8964;SDS011;4517;49.020;12.066;2024-03-02T05:07:13;143.33;;;77.13;;
8964;SDS011;4517;49.020;12.066;2024-03-02T05:09:39;139.17;;;73.33;;
8964;SDS011;4517;49.020;12.066;2024-03-02T05:12:05;154.90;;;81.27;;
8964;SDS011;4517;49.020;12.066;2024-03-02T05:14:34;132.80;;;78.50;;
8964;SDS011;4517;49.020;12.066;2024-03-02T05:17:00;157.17;;;79.17;;
8964;SDS011;4517;49.020;12.066;2024-03-02T05:19:26;148.87;;;76.60;;
8964;SDS011;4517;49.020;12.066;2024-03-02T05:21:52;141.23;;;81.90;;
8964;SDS011;4517;49.020;12.066;2024-03-02T05:24:18;144.00;;;80.53;;
8964;SDS011;4517;49.020;12.066;2024-03-02T05:26:44;150.33;;;76.70;;
8964;SDS011;4517;49.020;12.066;2024-03-02T05:29:10;131.17;;;73.43;;
8964;SDS011;4517;49.020;12.066;2024-03-02T05:31:35;136.97;;;77.10;;
8964;SDS011;4517;49.020;12.066;2024-03-02T05:34:01;144.40;;;75.70;;
8964;SDS011;4517;49.020;12.066;2024-03-02T05:36:27;139.70;;;75.73;;
8964;SDS011;4517;49.020;12.066;2024-03-02T05:38:54;133.73;;;79.93;;
8964;SDS011;4517;49.020;12.066;2024-03-02T05:41:20;130.97;;;73.63;;
8964;SDS011;4517;49.020;12.066;2024-03-02T05:43:46;130.63;;;73.27;;
8964;SDS011;4517;49.020;12.066;2024-03-02T05:46:12;139.93;;;74.73;;
8964;SDS011;4517;49.020;12.066;2024-03-02T05:48:38;139.03;;;72.20;;
8964;SDS011;4517;49.020;12.066;2024-03-02T05:51:04;143.80;;;74.57;;
8964;SDS011;4517;49.020;12.066;2024-03-02T05:53:30;126.20;;;68.60;;
8964;SDS011;4517;49.020;12.066;2024-03-02T05:55:56;163.07;;;74.53;;
8964;SDS011;4517;49.020;12.066;2024-03-02T05:58:22;147.77;;;71.80;;
8964;SDS011;4517;49.020;12.066;2024-03-02T06:01:02;137.83;;;73.37;;
8964;SDS011;4517;49.020;12.066;2024-03-02T06:03:29;145.77;;;70.27;;
8964;SDS011;4517;49.020;12.066;2024-03-02T06:05:55;134.90;;;74.27;;
8964;SDS011;4517;49.020;12.066;2024-03-02T06:08:21;137.13;;;75.67;;
8964;SDS011;4517;49.020;12.066;2024-03-02T06:10:47;142.30;;;74.70;;
8964;SDS011;4517;49.020;12.066;2024-03-02T06:13:13;142.20;;;71.67;;
8964;SDS011;4517;49.020;12.066;2024-03-02T06:15:39;121.77;;;68.37;;
8964;SDS011;4517;49.020;12.066;2024-03-02T06:18:05;131.40;;;72.17;;
8964;SDS011;4517;49.020;12.066;2024-03-02T06:20:32;135.17;;;68.43;;
8964;SDS011;4517;49.020;12.066;2024-03-02T06:22:58;128.13;;;64.47;;
8964;SDS011;4517;49.020;12.066;2024-03-02T06:25:24;143.40;;;69.70;;
8964;SDS011;4517;49.020;12.066;2024-03-02T06:27:50;137.63;;;68.47;;
8964;SDS011;4517;49.020;12.066;2024-03-02T06:30:16;125.57;;;73.10;;
8964;SDS011;4517;49.020;12.066;2024-03-02T06:32:42;135.27;;;65.17;;
8964;SDS011;4517;49.020;12.066;2024-03-02T06:35:08;131.10;;;67.83;;
8964;SDS011;4517;49.020;12.066;2024-03-02T06:37:35;135.30;;;77.97;;
8964;SDS011;4517;49.020;12.066;2024-03-02T06:40:01;140.83;;;70.50;;
8964;SDS011;4517;49.020;12.066;2024-03-02T06:42:27;138.03;;;71.73;;
8964;SDS011;4517;49.020;12.066;2024-03-02T06:44:58;142.10;;;70.57;;
8964;SDS011;4517;49.020;12.066;2024-03-02T06:47:24;143.83;;;69.77;;
8964;SDS011;4517;49.020;12.066;2024-03-02T06:49:50;150.60;;;73.13;;
8964;SDS011;4517;49.020;12.066;2024-03-02T06:52:16;136.87;;;70.77;;
8964;SDS011;4517;49.020;12.066;2024-03-02T06:54:42;138.13;;;67.40;;
8964;SDS011;4517;49.020;12.066;2024-03-02T06:57:08;145.60;;;68.63;;
8964;SDS011;4517;49.020;12.066;2024-03-02T06:59:34;145.17;;;68.17;;
8964;SDS011;4517;49.020;12.066;2024-03-02T07:02:00;128.03;;;67.90;;
8964;SDS011;4517;49.020;12.066;2024-03-02T07:04:26;124.53;;;64.93;;
8964;SDS011;4517;49.020;12.066;2024-03-02T07:06:52;129.97;;;67.37;;
8964;SDS011;4517;49.020;12.066;2024-03-02T07:09:19;146.57;;;71.57;;
8964;SDS011;4517;49.020;12.066;2024-03-02T07:11:47;134.10;;;88.00;;
8964;SDS011;4517;49.020;12.066;2024-03-02T07:14:13;127.67;;;62.93;;
8964;SDS011;4517;49.020;12.066;2024-03-02T07:16:39;124.43;;;63.27;;
8964;SDS011;4517;49.020;12.066;2024-03-02T07:19:06;124.87;;;60.37;;
8964;SDS011;4517;49.020;12.066;2024-03-02T07:21:32;131.70;;;61.80;;
8964;SDS011;4517;49.020;12.066;2024-03-02T07:23:58;122.53;;;64.57;;
8964;SDS011;4517;49.020;12.066;2024-03-02T07:26:24;120.23;;;60.60;;
8964;SDS011;4517;49.020;12.066;2024-03-02T07:28:50;131.00;;;62.23;;
8964;SDS011;4517;49.020;12.066;2024-03-02T07:31:16;114.40;;;71.40;;
8964;SDS011;4517;49.020;12.066;2024-03-02T07:33:45;119.07;;;62.80;;
8964;SDS011;4517;49.020;12.066;2024-03-02T07:36:12;121.03;;;60.37;;
8964;SDS011;4517;49.020;12.066;2024-03-02T07:38:38;105.80;;;58.67;;
8964;SDS011;4517;49.020;12.066;2024-03-02T07:41:05;105.50;;;58.47;;
8964;SDS011;4517;49.020;12.066;2024-03-02T07:43:31;109.97;;;55.00;;
8964;SDS011;4517;49.020;12.066;2024-03-02T07:45:58;94.80;;;55.53;;
8964;SDS011;4517;49.020;12.066;2024-03-02T07:48:25;95.30;;;58.70;;
8964;SDS011;4517;49.020;12.066;2024-03-02T07:50:51;101.27;;;54.93;;
8964;SDS011;4517;49.020;12.066;2024-03-02T07:53:17;99.33;;;56.20;;
8964;SDS011;4517;49.020;12.066;2024-03-02T07:55:43;106.10;;;57.73;;
8964;SDS011;4517;49.020;12.066;2024-03-02T07:58:09;95.17;;;55.40;;
8964;SDS011;4517;49.020;12.066;2024-03-02T08:00:36;88.77;;;57.13;;
8964;SDS011;4517;49.020;12.066;2024-03-02T08:03:04;99.07;;;57.60;;
8964;SDS011;4517;49.020;12.066;2024-03-02T08:05:30;84.50;;;53.53;;
8964;SDS011;4517;49.020;12.066;2024-03-02T08:07:56;86.10;;;55.23;;
8964;SDS011;4517;49.020;12.066;2024-03-02T08:10:22;82.83;;;52.10;;
8964;SDS011;4517;49.020;12.066;2024-03-02T08:12:48;88.00;;;54.30;;
8964;SDS011;4517;49.020;12.066;2024-03-02T08:15:14;83.17;;;53.77;;
8964;SDS011;4517;49.020;12.066;2024-03-02T08:17:40;89.27;;;53.90;;
8964;SDS011;4517;49.020;12.066;2024-03-02T08:20:13;81.20;;;53.30;;
8964;SDS011;4517;49.020;12.066;2024-03-02T08:22:39;80.80;;;54.73;;
8964;SDS011;4517;49.020;12.066;2024-03-02T08:25:05;81.20;;;54.53;;
8964;SDS011;4517;49.020;12.066;2024-03-02T08:27:31;84.60;;;54.20;;
8964;SDS011;4517;49.020;12.066;2024-03-02T08:29:57;90.40;;;55.93;;
8964;SDS011;4517;49.020;12.066;2024-03-02T08:32:23;79.97;;;52.70;;
8964;SDS011;4517;49.020;12.066;2024-03-02T08:34:49;80.43;;;55.03;;
8964;SDS011;4517;49.020;12.066;2024-03-02T08:37:15;93.37;;;53.17;;
8964;SDS011;4517;49.020;12.066;2024-03-02T08:39:41;87.07;;;54.40;;
8964;SDS011;4517;49.020;12.066;2024-03-02T08:42:07;87.87;;;50.87;;
8964;SDS011;4517;49.020;12.066;2024-03-02T08:44:35;77.80;;;53.20;;
8964;SDS011;4517;49.020;12.066;2024-03-02T08:47:01;90.43;;;54.60;;
8964;SDS011;4517;49.020;12.066;2024-03-02T08:49:27;83.27;;;51.60;;
8964;SDS011;4517;49.020;12.066;2024-03-02T08:51:53;80.97;;;53.53;;
8964;SDS011;4517;49.020;12.066;2024-03-02T08:54:22;83.40;;;54.27;;
8964;SDS011;4517;49.020;12.066;2024-03-02T08:56:49;76.60;;;51.10;;
8964;SDS011;4517;49.020;12.066;2024-03-02T08:59:15;77.13;;;52.63;;
8964;SDS011;4517;49.020;12.066;2024-03-02T09:01:41;72.07;;;51.50;;
8964;SDS011;4517;49.020;12.066;2024-03-02T09:04:08;78.40;;;50.87;;
8964;SDS011;4517;49.020;12.066;2024-03-02T09:06:34;71.13;;;50.57;;
8964;SDS011;4517;49.020;12.066;2024-03-02T09:09:00;77.83;;;49.33;;
8964;SDS011;4517;49.020;12.066;2024-03-02T09:11:26;71.53;;;48.17;;
8964;SDS011;4517;49.020;12.066;2024-03-02T09:13:52;69.80;;;51.00;;
8964;SDS011;4517;49.020;12.066;2024-03-02T09:16:19;65.77;;;47.10;;
8964;SDS011;4517;49.020;12.066;2024-03-02T09:18:45;74.03;;;50.00;;
8964;SDS011;4517;49.020;12.066;2024-03-02T09:21:12;71.23;;;50.93;;
8964;SDS011;4517;49.020;12.066;2024-03-02T09:23:38;72.90;;;52.43;;
8964;SDS011;4517;49.020;12.066;2024-03-02T09:26:05;79.80;;;51.23;;
8964;SDS011;4517;49.020;12.066;2024-03-02T09:28:31;75.23;;;51.03;;
8964;SDS011;4517;49.020;12.066;2024-03-02T09:30:57;80.40;;;53.73;;
8964;SDS011;4517;49.020;12.066;2024-03-02T09:33:23;79.07;;;52.60;;
8964;SDS011;4517;49.020;12.066;2024-03-02T09:35:49;68.00;;;48.50;;
8964;SDS011;4517;49.020;12.066;2024-03-02T09:38:15;71.03;;;48.77;;
8964;SDS011;4517;49.020;12.066;2024-03-02T09:40:41;66.90;;;49.70;;
8964;SDS011;4517;49.020;12.066;2024-03-02T09:43:08;70.57;;;47.33;;
8964;SDS011;4517;49.020;12.066;2024-03-02T09:45:34;61.43;;;45.40;;
8964;SDS011;4517;49.020;12.066;2024-03-02T09:48:00;71.63;;;46.10;;
8964;SDS011;4517;49.020;12.066;2024-03-02T09:50:26;74.10;;;46.90;;
8964;SDS011;4517;49.020;12.066;2024-03-02T09:52:52;74.00;;;57.83;;
8964;SDS011;4517;49.020;12.066;2024-03-02T09:55:19;60.13;;;44.70;;
8964;SDS011;4517;49.020;12.066;2024-03-02T09:57:46;63.67;;;43.37;;
8964;SDS011;4517;49.020;12.066;2024-03-02T10:00:13;60.30;;;43.30;;
8964;SDS011;4517;49.020;12.066;2024-03-02T10:02:40;60.83;;;44.63;;
8964;SDS011;4517;49.020;12.066;2024-03-02T10:05:07;63.20;;;42.57;;
8964;SDS011;4517;49.020;12.066;2024-03-02T10:07:33;63.13;;;41.10;;
8964;SDS011;4517;49.020;12.066;2024-03-02T10:09:59;55.70;;;39.70;;
8964;SDS011;4517;49.020;12.066;2024-03-02T10:12:37;56.40;;;38.33;;
8964;SDS011;4517;49.020;12.066;2024-03-02T10:15:03;50.10;;;37.50;;
8964;SDS011;4517;49.020;12.066;2024-03-02T10:17:30;66.77;;;39.40;;
8964;SDS011;4517;49.020;12.066;2024-03-02T10:19:56;56.30;;;38.27;;
8964;SDS011;4517;49.020;12.066;2024-03-02T10:22:22;52.30;;;37.13;;
8964;SDS011;4517;49.020;12.066;2024-03-02T10:24:49;49.87;;;36.67;;
8964;SDS011;4517;49.020;12.066;2024-03-02T10:27:15;48.83;;;34.43;;
8964;SDS011;4517;49.020;12.066;2024-03-02T10:29:41;51.97;;;34.47;;
8964;SDS011;4517;49.020;12.066;2024-03-02T10:32:08;50.80;;;35.90;;
8964;SDS011;4517;49.020;12.066;2024-03-02T10:34:36;50.40;;;34.40;;
8964;SDS011;4517;49.020;12.066;2024-03-02T10:37:02;49.00;;;33.30;;
8964;SDS011;4517;49.020;12.066;2024-03-02T10:39:28;44.70;;;33.40;;
8964;SDS011;4517;49.020;12.066;2024-03-02T10:41:55;49.47;;;33.53;;
8964;SDS011;4517;49.020;12.066;2024-03-02T10:44:22;51.10;;;34.67;;
8964;SDS011;4517;49.020;12.066;2024-03-02T10:46:49;54.03;;;33.50;;
8964;SDS011;4517;49.020;12.066;2024-03-02T10:49:15;45.07;;;33.27;;
8964;SDS011;4517;49.020;12.066;2024-03-02T10:51:42;44.77;;;32.07;;
8964;SDS011;4517;49.020;12.066;2024-03-02T10:54:09;46.50;;;31.40;;
8964;SDS011;4517;49.020;12.066;2024-03-02T10:56:39;44.37;;;30.80;;
8964;SDS011;4517;49.020;12.066;2024-03-02T11:01:31;47.60;;;32.80;;
8964;SDS011;4517;49.020;12.066;2024-03-02T11:03:58;47.40;;;32.03;;
8964;SDS011;4517;49.020;12.066;2024-03-02T11:06:25;46.50;;;31.23;;
8964;SDS011;4517;49.020;12.066;2024-03-02T11:08:53;42.97;;;31.87;;
8964;SDS011;4517;49.020;12.066;2024-03-02T11:11:25;46.67;;;30.57;;
8964;SDS011;4517;49.020;12.066;2024-03-02T11:13:54;44.10;;;32.70;;
8964;SDS011;4517;49.020;12.066;2024-03-02T11:18:48;48.77;;;32.53;;
8964;SDS011;4517;49.020;12.066;2024-03-02T11:21:14;46.87;;;30.07;;
8964;SDS011;4517;49.020;12.066;2024-03-02T11:23:41;46.67;;;31.27;;
8964;SDS011;4517;49.020;12.066;2024-03-02T11:28:45;45.40;;;31.23;;
8964;SDS011;4517;49.020;12.066;2024-03-02T11:31:11;41.53;;;29.27;;
8964;SDS011;4517;49.020;12.066;2024-03-02T11:33:36;43.40;;;28.97;;
8964;SDS011;4517;49.020;12.066;2024-03-02T11:36:03;43.90;;;31.43;;
8964;SDS011;4517;49.020;12.066;2024-03-02T11:38:30;46.43;;;29.73;;
8964;SDS011;4517;49.020;12.066;2024-03-02T11:40:57;43.90;;;30.90;;
8964;SDS011;4517;49.020;12.066;2024-03-02T11:43:23;44.67;;;30.73;;
8964;SDS011;4517;49.020;12.066;2024-03-02T11:45:56;46.80;;;31.63;;
8964;SDS011;4517;49.020;12.066;2024-03-02T11:48:23;44.60;;;30.03;;
8964;SDS011;4517;49.020;12.066;2024-03-02T11:50:50;42.50;;;31.27;;
8964;SDS011;4517;49.020;12.066;2024-03-02T11:53:17;40.37;;;28.77;;
8964;SDS011;4517;49.020;12.066;2024-03-02T11:55:43;38.47;;;29.17;;
8964;SDS011;4517;49.020;12.066;2024-03-02T11:58:13;39.13;;;29.73;;
8964;SDS011;4517;49.020;12.066;2024-03-02T12:00:39;41.47;;;30.87;;
8964;SDS011;4517;49.020;12.066;2024-03-02T12:03:06;36.70;;;27.17;;
8964;SDS011;4517;49.020;12.066;2024-03-02T12:05:32;42.73;;;30.73;;
8964;SDS011;4517;49.020;12.066;2024-03-02T12:08:05;38.67;;;27.83;;
8964;SDS011;4517;49.020;12.066;2024-03-02T12:10:31;42.20;;;30.30;;
8964;SDS011;4517;49.020;12.066;2024-03-02T12:12:58;44.17;;;30.07;;
8964;SDS011;4517;49.020;12.066;2024-03-02T12:15:25;42.30;;;29.07;;
8964;SDS011;4517;49.020;12.066;2024-03-02T12:17:58;41.50;;;30.10;;
8964;SDS011;4517;49.020;12.066;2024-03-02T12:20:25;38.10;;;28.93;;
8964;SDS011;4517;49.020;12.066;2024-03-02T12:22:51;42.63;;;32.97;;
8964;SDS011;4517;49.020;12.066;2024-03-02T12:25:18;39.47;;;28.97;;
8964;SDS011;4517;49.020;12.066;2024-03-02T12:27:44;36.00;;;29.27;;
8964;SDS011;4517;49.020;12.066;2024-03-02T12:30:11;41.77;;;31.10;;
8964;SDS011;4517;49.020;12.066;2024-03-02T12:32:38;40.57;;;29.40;;
8964;SDS011;4517;49.020;12.066;2024-03-02T12:35:04;40.13;;;28.87;;
8964;SDS011;4517;49.020;12.066;2024-03-02T12:37:30;45.70;;;29.30;;
8964;SDS011;4517;49.020;12.066;2024-03-02T12:39:56;38.03;;;28.63;;
8964;SDS011;4517;49.020;12.066;2024-03-02T12:42:23;38.37;;;29.80;;
8964;SDS011;4517;49.020;12.066;2024-03-02T12:44:53;44.10;;;29.67;;
8964;SDS011;4517;49.020;12.066;2024-03-02T12:47:22;39.73;;;28.43;;
8964;SDS011;4517;49.020;12.066;2024-03-02T12:49:48;48.93;;;29.70;;
8964;SDS011;4517;49.020;12.066;2024-03-02T12:52:15;44.10;;;30.17;;
8964;SDS011;4517;49.020;12.066;2024-03-02T12:54:43;41.63;;;30.40;;
8964;SDS011;4517;49.020;12.066;2024-03-02T12:57:09;43.80;;;29.83;;
8964;SDS011;4517;49.020;12.066;2024-03-02T12:59:35;43.97;;;30.27;;
8964;SDS011;4517;49.020;12.066;2024-03-02T13:02:02;43.10;;;30.17;;
8964;SDS011;4517;49.020;12.066;2024-03-02T13:04:28;46.50;;;29.63;;
8964;SDS011;4517;49.020;12.066;2024-03-02T13:06:56;44.23;;;31.10;;
8964;SDS011;4517;49.020;12.066;2024-03-02T13:09:22;42.57;;;30.27;;
8964;SDS011;4517;49.020;12.066;2024-03-02T13:11:48;46.50;;;30.60;;
8964;SDS011;4517;49.020;12.066;2024-03-02T13:14:14;41.27;;;29.63;;
8964;SDS011;4517;49.020;12.066;2024-03-02T13:16:41;43.13;;;29.30;;
8964;SDS011;4517;49.020;12.066;2024-03-02T13:19:07;42.63;;;28.20;;
8964;SDS011;4517;49.020;12.066;2024-03-02T13:21:34;47.10;;;31.10;;
8964;SDS011;4517;49.020;12.066;2024-03-02T13:24:00;39.43;;;30.43;;
8964;SDS011;4517;49.020;12.066;2024-03-02T13:26:26;40.53;;;29.57;;
8964;SDS011;4517;49.020;12.066;2024-03-02T13:28:52;34.83;;;27.23;;
8964;SDS011;4517;49.020;12.066;2024-03-02T13:31:18;44.53;;;30.53;;
8964;SDS011;4517;49.020;12.066;2024-03-02T13:33:45;39.50;;;28.67;;
8964;SDS011;4517;49.020;12.066;2024-03-02T13:36:11;40.30;;;28.87;;
8964;SDS011;4517;49.020;12.066;2024-03-02T13:38:37;38.97;;;29.97;;
8964;SDS011;4517;49.020;12.066;2024-03-02T13:41:04;37.80;;;28.80;;
8964;SDS011;4517;49.020;12.066;2024-03-02T13:43:29;45.43;;;30.67;;
8964;SDS011;4517;49.020;12.066;2024-03-02T13:46:00;37.73;;;29.90;;
8964;SDS011;4517;49.020;12.066;2024-03-02T13:48:26;39.03;;;28.63;;
8964;SDS011;4517;49.020;12.066;2024-03-02T13:50:52;38.57;;;28.03;;
8964;SDS011;4517;49.020;12.066;2024-03-02T13:53:18;44.27;;;29.90;;
8964;SDS011;4517;49.020;12.066;2024-03-02T13:55:44;41.23;;;30.00;;
8964;SDS011;4517;49.020;12.066;2024-03-02T13:58:10;39.03;;;29.30;;
8964;SDS011;4517;49.020;12.066;2024-03-02T14:00:37;36.73;;;27.10;;
8964;SDS011;4517;49.020;12.066;2024-03-02T14:03:04;41.10;;;28.77;;
8964;SDS011;4517;49.020;12.066;2024-03-02T14:05:30;37.70;;;28.43;;
8964;SDS011;4517;49.020;12.066;2024-03-02T14:07:56;46.47;;;29.20;;
8964;SDS011;4517;49.020;12.066;2024-03-02T14:10:22;40.97;;;28.80;;
8964;SDS011;4517;49.020;12.066;2024-03-02T14:12:48;36.17;;;28.77;;
8964;SDS011;4517;49.020;12.066;2024-03-02T14:15:14;43.97;;;31.37;;
8964;SDS011;4517;49.020;12.066;2024-03-02T14:17:40;41.50;;;30.00;;
8964;SDS011;4517;49.020;12.066;2024-03-02T14:20:07;40.33;;;29.40;;
8964;SDS011;4517;49.020;12.066;2024-03-02T14:22:36;38.60;;;28.77;;
8964;SDS011;4517;49.020;12.066;2024-03-02T14:25:02;39.90;;;28.87;;
8964;SDS011;4517;49.020;12.066;2024-03-02T14:27:28;38.33;;;30.03;;
8964;SDS011;4517;49.020;12.066;2024-03-02T14:29:54;46.30;;;29.50;;
8964;SDS011;4517;49.020;12.066;2024-03-02T14:32:20;40.80;;;28.57;;
8964;SDS011;4517;49.020;12.066;2024-03-02T14:34:46;40.63;;;29.40;;
8964;SDS011;4517;49.020;12.066;2024-03-02T14:37:13;39.43;;;29.53;;
8964;SDS011;4517;49.020;12.066;2024-03-02T14:39:39;37.13;;;29.27;;